Time;durP1;ratioP1;P1;durP2;ratioP2;P2;SDS_P1;SDS_P2;PMS_P1;PMS_P2;Temp;Humidity;BMP_temperature;BMP_pressure;BME280_temperature;BME280_humidity;BME280_pressure;Samples;Min_cycle;Max_cycle;Signal;HPM_P1;HPM_P2
2023/01/20 00:00:47;;;;;;;28.17;23.22;;;;;;;4.98;64.12;101658.23;503606;105;922507;-71
2023/01/20 00:01:50;;;;;;;26.93;23.16;;;;;;;4.98;64.03;101657.38;503601;105;922442;-70
2023/01/20 00:02:53;;;;;;;26.86;23.15;;;;;;;4.98;64.10;101660.09;503595;105;922580;-70
2023/01/20 00:03:57;;;;;;;25.28;22.36;;;;;;;4.98;64.05;101651.98;503524;105;922801;-70
2023/01/20 00:05:00;;;;;;;25.37;22.99;;;;;;;4.98;64.13;101655.53;504105;103;922923;-70
2023/01/20 00:06:03;;;;;;;27.55;23.69;;;;;;;4.98;64.15;101660.94;503659;105;922547;-71
2023/01/20 00:07:06;;;;;;;28.04;23.89;;;;;;;4.99;64.15;101654.54;503614;105;922446;-69
2023/01/20 00:08:10;;;;;;;26.25;22.07;;;;;;;4.99;64.17;101656.39;503657;105;922930;-70
2023/01/20 00:09:15;;;;;;;32.33;23.50;;;;;;;5.00;64.13;101658.09;503615;103;922577;-69
2023/01/20 00:10:18;;;;;;;26.69;22.91;;;;;;;4.99;64.11;101654.54;513080;103;922896;-69
2023/01/20 00:11:22;;;;;;;28.39;24.36;;;;;;;5.00;63.95;101658.09;513375;103;922360;-71
2023/01/20 00:12:25;;;;;;;24.11;21.82;;;;;;;4.98;63.91;101655.53;513276;103;922524;-70
2023/01/20 00:13:28;;;;;;;33.80;24.21;;;;;;;4.99;64.00;101656.39;513342;103;922893;-69
2023/01/20 00:14:31;;;;;;;26.51;23.67;;;;;;;4.99;63.87;101659.09;510098;103;922479;-69
2023/01/20 00:15:35;;;;;;;23.90;21.52;;;;;;;4.97;63.81;101655.67;512139;103;922421;-69
2023/01/20 00:16:38;;;;;;;25.89;23.21;;;;;;;4.96;63.88;101652.12;513310;103;922769;-69
2023/01/20 00:17:41;;;;;;;26.54;23.80;;;;;;;4.94;63.81;101651.45;513318;103;928691;-70
2023/01/20 00:18:44;;;;;;;25.73;22.03;;;;;;;4.93;63.82;101656.99;513326;103;922433;-70
2023/01/20 00:19:47;;;;;;;29.73;23.81;;;;;;;4.92;63.92;101649.88;507747;103;922926;-70
2023/01/20 00:20:50;;;;;;;28.31;22.09;;;;;;;4.90;63.88;101647.36;503588;105;922483;-70
2023/01/20 00:21:54;;;;;;;26.71;22.94;;;;;;;4.91;63.98;101653.58;503687;103;922723;-70
2023/01/20 00:22:57;;;;;;;30.12;23.45;;;;;;;4.92;64.02;101657.98;503765;103;922503;-69
2023/01/20 00:24:00;;;;;;;26.69;22.19;;;;;;;4.91;63.86;101656.28;506006;103;922419;-70
2023/01/20 00:25:03;;;;;;;26.15;22.69;;;;;;;4.90;63.83;101660.02;504984;103;922513;-70
2023/01/20 00:26:10;;;;;;;24.29;21.93;;;;;;;4.88;63.75;101651.20;503663;103;922981;-69
2023/01/20 00:27:15;;;;;;;27.04;22.68;;;;;;;4.86;63.85;101645.08;503377;105;922437;-70
2023/01/20 00:28:18;;;;;;;29.11;22.98;;;;;;;4.84;63.87;101650.66;503381;105;922464;-70
2023/01/20 00:29:21;;;;;;;28.51;22.95;;;;;;;4.85;63.86;101646.11;503918;103;922395;-69
2023/01/20 00:30:24;;;;;;;26.52;22.76;;;;;;;4.84;63.89;101649.81;487939;107;922503;-70
2023/01/20 00:31:29;;;;;;;24.81;22.27;;;;;;;4.83;64.01;101646.25;511210;103;922940;-70
2023/01/20 00:32:43;;;;;;;28.67;22.92;;;;;;;4.83;64.05;101646.25;510605;103;922444;-70
2023/01/20 00:33:45;;;;;;;27.56;23.46;;;;;;;4.84;63.98;101645.26;503423;103;922478;-70
2023/01/20 00:34:48;;;;;;;27.16;23.52;;;;;;;4.83;64.11;101642.70;503445;103;922506;-69
2023/01/20 00:35:51;;;;;;;26.06;23.14;;;;;;;4.83;64.07;101642.70;503711;103;923545;-71
2023/01/20 00:36:54;;;;;;;27.04;22.72;;;;;;;4.83;64.05;101645.40;503602;104;922409;-71
2023/01/20 00:37:57;;;;;;;28.26;22.77;;;;;;;4.82;64.05;101641.84;503544;105;923071;-70
2023/01/20 00:39:04;;;;;;;29.56;22.48;;;;;;;4.82;64.00;101639.14;503568;104;922432;-70
2023/01/20 00:40:09;;;;;;;24.74;21.93;;;;;;;4.81;64.01;101640.14;503481;103;922414;-70
2023/01/20 00:41:13;;;;;;;30.25;22.93;;;;;;;4.80;63.89;101645.69;504950;103;922988;-68
2023/01/20 00:42:16;;;;;;;27.96;22.61;;;;;;;4.79;63.81;101638.61;503373;104;922462;-69
2023/01/20 00:43:19;;;;;;;29.14;23.10;;;;;;;4.76;63.83;101641.59;504053;103;923091;-69
2023/01/20 00:44:22;;;;;;;25.32;22.26;;;;;;;4.74;63.79;101633.63;504201;103;922574;-69
2023/01/20 00:45:25;;;;;;;24.40;21.29;;;;;;;4.72;63.93;101642.91;503528;105;922843;-68
2023/01/20 00:46:28;;;;;;;28.24;23.36;;;;;;;4.74;63.90;101643.62;503637;103;923215;-69
2023/01/20 00:47:31;;;;;;;25.02;21.71;;;;;;;4.72;63.96;101637.50;505014;103;922469;-69
2023/01/20 00:48:35;;;;;;;27.60;22.12;;;;;;;4.72;63.95;101641.05;503618;105;922502;-70
2023/01/20 00:49:38;;;;;;;28.09;23.12;;;;;;;4.72;64.06;101642.91;503523;103;922804;-69
2023/01/20 00:50:41;;;;;;;26.65;22.69;;;;;;;4.72;64.08;101645.61;503580;105;922487;-69
2023/01/20 00:51:45;;;;;;;24.59;21.79;;;;;;;4.71;64.17;101650.16;503616;103;922403;-69
2023/01/20 00:52:48;;;;;;;28.23;23.84;;;;;;;4.72;64.16;101641.05;503651;105;925587;-70
2023/01/20 00:53:51;;;;;;;25.69;22.04;;;;;;;4.72;64.09;101640.20;505341;103;922466;-70
2023/01/20 00:54:54;;;;;;;25.02;22.10;;;;;;;4.72;64.21;101645.61;512418;103;922395;-70
2023/01/20 00:55:57;;;;;;;26.02;21.67;;;;;;;4.72;64.18;101640.20;506531;103;922412;-70
2023/01/20 00:57:00;;;;;;;25.99;22.54;;;;;;;4.71;64.16;101647.45;513449;103;922510;-69
2023/01/20 00:58:03;;;;;;;30.59;23.74;;;;;;;4.71;64.00;101643.90;511397;103;922414;-70
2023/01/20 00:59:08;;;;;;;25.51;21.60;;;;;;;4.68;64.03;101653.17;513409;103;922448;-70
2023/01/20 01:00:12;;;;;;;25.41;22.60;;;;;;;4.67;64.12;101646.06;507131;103;922530;-69
2023/01/20 01:01:15;;;;;;;28.79;23.29;;;;;;;4.67;64.15;101646.06;503428;105;930190;-69
2023/01/20 01:02:18;;;;;;;28.10;23.20;;;;;;;4.66;64.13;101638.10;503692;103;930317;-69
2023/01/20 01:03:21;;;;;;;30.12;22.53;;;;;;;4.65;64.16;101650.76;505373;103;922529;-69
2023/01/20 01:04:25;;;;;;;27.48;23.52;;;;;;;4.65;64.17;101644.50;503434;103;922434;-69
2023/01/20 01:05:28;;;;;;;29.46;23.69;;;;;;;4.65;64.20;101644.50;512613;103;928113;-69
2023/01/20 01:06:31;;;;;;;30.11;23.96;;;;;;;4.66;64.33;101646.20;513425;103;923066;-69
2023/01/20 01:07:34;;;;;;;33.84;23.71;;;;;;;4.65;64.39;101644.50;511529;103;922461;-69
2023/01/20 01:08:37;;;;;;;30.67;23.76;;;;;;;4.65;64.45;101647.20;512211;103;922621;-69
2023/01/20 01:09:40;;;;;;;30.83;25.09;;;;;;;4.66;64.36;101646.20;507000;103;922721;-69
2023/01/20 01:10:43;;;;;;;30.06;22.94;;;;;;;4.66;64.48;101643.50;513399;103;922967;-70
2023/01/20 01:11:47;;;;;;;29.95;24.50;;;;;;;4.68;64.43;101641.52;505505;103;922551;-70
2023/01/20 01:12:50;;;;;;;34.71;24.11;;;;;;;4.68;64.48;101646.92;503578;105;922600;-70
2023/01/20 01:13:55;;;;;;;28.89;23.74;;;;;;;4.68;64.41;101642.37;503612;105;922908;-69
2023/01/20 01:14:58;;;;;;;28.00;23.06;;;;;;;4.68;64.39;101649.63;503528;103;922882;-69
2023/01/20 01:16:01;;;;;;;26.41;22.59;;;;;;;4.68;64.39;101644.22;510021;103;922674;-69
2023/01/20 01:17:04;;;;;;;29.99;22.42;;;;;;;4.67;64.42;101645.21;513270;103;922456;-69
2023/01/20 01:18:07;;;;;;;32.44;25.38;;;;;;;4.67;64.45;101651.47;506272;103;922463;-69
2023/01/20 01:19:10;;;;;;;28.32;22.94;;;;;;;4.68;64.36;101655.02;503592;105;922406;-70
2023/01/20 01:20:14;;;;;;;28.26;24.43;;;;;;;4.68;64.37;101652.32;504190;103;922699;-70
2023/01/20 01:21:17;;;;;;;33.87;24.51;;;;;;;4.68;64.48;101652.32;503732;103;922886;-70
2023/01/20 01:22:20;;;;;;;32.26;23.81;;;;;;;4.67;64.37;101653.31;503517;105;923112;-70
2023/01/20 01:23:23;;;;;;;26.45;22.98;;;;;;;4.68;64.39;101660.42;503513;103;922886;-70
2023/01/20 01:24:27;;;;;;;28.39;24.38;;;;;;;4.68;64.41;101644.22;503787;103;930670;-70
2023/01/20 01:25:30;;;;;;;32.16;24.41;;;;;;;4.67;64.53;101651.47;506025;103;922621;-70
2023/01/20 01:26:33;;;;;;;32.47;23.87;;;;;;;4.68;64.45;101655.88;503671;104;922397;-70
2023/01/20 01:27:36;;;;;;;26.77;23.77;;;;;;;4.69;64.46;101652.15;504714;103;922476;-69
2023/01/20 01:28:40;;;;;;;30.97;24.32;;;;;;;4.69;64.30;101659.39;510803;103;922421;-69
2023/01/20 01:29:43;;;;;;;32.63;24.26;;;;;;;4.67;64.14;101653.31;510028;103;922596;-68
2023/01/20 01:30:46;;;;;;;26.27;23.06;;;;;;;4.65;64.08;101647.20;509984;103;922512;-68
2023/01/20 01:31:49;;;;;;;33.36;24.69;;;;;;;4.63;64.11;101654.63;513392;103;922458;-69
2023/01/20 01:32:52;;;;;;;28.69;24.00;;;;;;;4.60;63.97;101653.06;504786;103;922503;-70
2023/01/20 01:33:55;;;;;;;25.36;22.71;;;;;;;4.59;64.00;101648.66;503526;105;922814;-70
2023/01/20 01:34:58;;;;;;;34.38;24.65;;;;;;;4.56;64.10;101652.52;502638;103;922762;-69
2023/01/20 01:36:03;;;;;;;30.78;25.46;;;;;;;4.54;63.99;101649.11;503555;105;922475;-69
2023/01/20 01:37:06;;;;;;;29.71;23.28;;;;;;;4.53;64.03;101652.80;503432;104;923053;-68
2023/01/20 01:38:10;;;;;;;28.02;24.06;;;;;;;4.52;64.08;101644.88;503446;105;930278;-69
2023/01/20 01:39:13;;;;;;;29.26;24.02;;;;;;;4.51;64.19;101654.82;503589;103;930235;-69
2023/01/20 01:40:17;;;;;;;31.89;24.31;;;;;;;4.52;64.23;101656.50;510097;103;922504;-69
2023/01/20 01:41:20;;;;;;;35.01;24.81;;;;;;;4.51;64.38;101651.27;511084;103;923009;-69
2023/01/20 01:42:24;;;;;;;29.78;24.19;;;;;;;4.53;64.35;101646.55;511480;103;922474;-69
2023/01/20 01:43:31;;;;;;;27.89;24.19;;;;;;;4.52;64.39;101644.88;504189;103;922522;-69
2023/01/20 01:44:37;;;;;;;35.34;25.59;;;;;;;4.52;64.58;101637.59;504000;103;922457;-69
2023/01/20 01:45:40;;;;;;;29.48;24.34;;;;;;;4.52;64.57;101650.27;503316;105;922654;-68
2023/01/20 01:46:44;;;;;;;26.98;24.34;;;;;;;4.51;64.59;101644.02;504177;103;922532;-69
2023/01/20 01:47:59;;;;;;;29.42;24.16;;;;;;;4.52;64.56;101642.99;503597;105;922447;-69
2023/01/20 01:49:08;;;;;;;29.41;24.64;;;;;;;4.52;64.48;101639.47;492217;107;922959;-69
2023/01/20 01:50:15;;;;;;;33.24;25.69;;;;;;;4.52;64.45;101644.88;503643;103;922923;-69
2023/01/20 01:51:22;;;;;;;27.81;24.12;;;;;;;4.49;64.28;101645.16;503405;103;922493;-70
2023/01/20 01:52:25;;;;;;;32.58;24.26;;;;;;;4.46;64.22;101645.47;503398;105;923014;-70
2023/01/20 01:53:31;;;;;;;28.91;24.77;;;;;;;4.43;64.19;101648.45;503573;105;922514;-70
2023/01/20 01:54:37;;;;;;;31.12;24.86;;;;;;;4.41;64.25;101648.59;504175;103;923957;-70
2023/01/20 01:55:43;;;;;;;27.98;24.57;;;;;;;4.39;64.18;101647.05;502489;104;922439;-70
2023/01/20 01:56:48;;;;;;;30.05;24.25;;;;;;;4.37;64.32;101652.59;507396;103;922479;-69
2023/01/20 01:57:52;;;;;;;33.13;24.19;;;;;;;4.35;64.38;101649.21;513209;103;922387;-69
2023/01/20 01:58:59;;;;;;;29.31;24.06;;;;;;;4.35;64.47;101646.52;504861;103;923648;-69
2023/01/20 02:00:06;;;;;;;24.92;22.29;;;;;;;4.35;64.69;101648.36;503885;103;922562;-69
2023/01/20 02:01:12;;;;;;;30.16;24.86;;;;;;;4.36;64.80;101647.33;503310;105;922446;-70
2023/01/20 02:02:15;;;;;;;31.47;24.72;;;;;;;4.36;64.82;101647.33;503500;105;922432;-70
2023/01/20 02:03:20;;;;;;;30.38;24.25;;;;;;;4.38;64.93;101640.80;502888;104;930337;-70
2023/01/20 02:04:26;;;;;;;31.69;24.42;;;;;;;4.39;64.90;101645.20;503828;103;922532;-69
2023/01/20 02:05:30;;;;;;;29.46;24.62;;;;;;;4.39;65.00;101637.11;512759;103;930320;-69
2023/01/20 02:06:36;;;;;;;28.68;24.11;;;;;;;4.42;65.02;101644.04;501633;104;922446;-70
2023/01/20 02:07:43;;;;;;;27.96;25.04;;;;;;;4.42;64.88;101642.19;494605;107;922648;-70
2023/01/20 02:08:47;;;;;;;27.81;24.54;;;;;;;4.44;64.86;101642.05;497376;105;922375;-70
2023/01/20 02:09:51;;;;;;;36.08;24.58;;;;;;;4.43;64.90;101645.75;505237;104;922353;-70
2023/01/20 02:10:54;;;;;;;29.02;25.10;;;;;;;4.43;64.84;101640.34;507034;104;922571;-69
2023/01/20 02:12:01;;;;;;;31.11;25.45;;;;;;;4.44;64.84;101642.91;495605;104;930351;-70
2023/01/20 02:13:04;;;;;;;30.21;25.52;;;;;;;4.44;64.86;101642.05;494514;106;922506;-70
2023/01/20 02:14:08;;;;;;;32.01;25.32;;;;;;;4.44;64.92;101637.50;499284;105;922453;-70
2023/01/20 02:15:11;;;;;;;31.41;25.14;;;;;;;4.44;64.86;101644.75;496756;105;924712;-70
2023/01/20 02:16:31;;;;;;;27.21;24.46;;;;;;;4.42;64.87;101631.39;494470;107;930196;-70
2023/01/20 02:17:44;;;;;;;32.04;25.64;;;;;;;4.43;64.86;101640.34;498041;105;930366;-70
2023/01/20 02:18:57;;;;;;;31.25;25.57;;;;;;;4.43;64.81;101648.45;498673;105;922490;-70
2023/01/20 02:20:24;;;;;;;29.13;25.91;;;;;;;4.41;64.92;101643.19;503862;105;922759;-70
2023/01/20 02:21:33;;;;;;;31.47;25.62;;;;;;;4.41;64.89;101639.66;502053;105;922477;-70
2023/01/20 02:22:43;;;;;;;28.73;25.66;;;;;;;4.41;64.96;101636.97;503479;105;922543;-70
2023/01/20 02:23:56;;;;;;;29.35;25.48;;;;;;;4.40;65.10;101638.81;494665;105;922541;-69
2023/01/20 02:25:05;;;;;;;28.52;25.18;;;;;;;4.39;65.14;101641.66;500083;105;922391;-69
2023/01/20 02:26:29;;;;;;;29.41;25.16;;;;;;;4.39;65.08;101639.80;493620;107;922526;-69
2023/01/20 02:27:57;;;;;;;29.62;25.17;;;;;;;4.39;65.18;101647.05;494459;107;922858;-69
2023/01/20 02:29:03;;;;;;;27.15;24.53;;;;;;;4.38;65.12;101642.64;498021;105;922889;-69
2023/01/20 02:30:23;;;;;;;29.68;24.87;;;;;;;4.37;65.22;101649.89;502975;105;922391;-69
2023/01/20 02:31:46;;;;;;;28.99;25.89;;;;;;;4.35;65.20;101645.66;500957;105;922534;-69
2023/01/20 02:33:13;;;;;;;29.93;25.34;;;;;;;4.35;65.21;101641.11;502241;105;922419;-69
2023/01/20 02:34:50;;;;;;;27.35;24.56;;;;;;;4.33;65.19;101644.94;496898;105;922458;-69
2023/01/20 02:36:11;;;;;;;34.57;25.35;;;;;;;4.30;65.15;101648.78;494504;107;922348;-69
2023/01/20 02:37:18;;;;;;;28.51;25.51;;;;;;;4.29;65.19;101657.05;499024;105;922759;-69
2023/01/20 02:38:43;;;;;;;30.11;24.32;;;;;;;4.27;65.30;101657.19;499866;105;922821;-69
2023/01/20 02:40:04;;;;;;;28.92;25.87;;;;;;;4.25;65.19;101652.92;501554;105;922435;-69
2023/01/20 02:41:38;;;;;;;29.57;24.29;;;;;;;4.23;65.16;101655.79;497413;106;922640;-69
2023/01/20 02:42:51;;;;;;;26.43;23.72;;;;;;;4.22;65.28;101655.92;494528;107;922414;-69
2023/01/20 02:44:07;;;;;;;30.97;25.29;;;;;;;4.20;65.34;101664.16;494611;105;922653;-69
2023/01/20 02:45:22;;;;;;;27.77;24.93;;;;;;;4.19;65.45;101655.21;503443;105;922446;-70
2023/01/20 02:46:32;;;;;;;29.79;23.99;;;;;;;4.17;65.41;101646.43;501243;105;922446;-69
2023/01/20 02:47:39;;;;;;;32.23;24.76;;;;;;;4.19;65.61;101648.95;494566;107;922567;-69
2023/01/20 02:49:14;;;;;;;27.89;24.38;;;;;;;4.19;65.65;101640.86;495602;105;922504;-70
2023/01/20 02:50:41;;;;;;;25.16;22.60;;;;;;;4.20;65.55;101651.52;496089;105;922456;-69
2023/01/20 02:52:00;;;;;;;26.26;23.47;;;;;;;4.20;65.70;101650.67;494980;105;922893;-69
2023/01/20 02:53:06;;;;;;;27.09;23.91;;;;;;;4.20;65.69;101645.27;495387;105;922968;-69
2023/01/20 02:54:13;;;;;;;25.92;23.21;;;;;;;4.21;65.89;101652.38;494828;105;922466;-69
2023/01/20 02:55:28;;;;;;;25.76;23.16;;;;;;;4.22;65.89;101656.78;498224;104;922529;-69
2023/01/20 02:56:34;;;;;;;26.06;23.32;;;;;;;4.24;65.89;101657.50;477670;107;922778;-68
2023/01/20 02:57:43;;;;;;;28.60;23.48;;;;;;;4.25;65.92;101653.77;496087;105;923413;-69
2023/01/20 02:58:51;;;;;;;26.67;23.79;;;;;;;4.26;65.78;101652.78;495451;105;922434;-69
2023/01/20 02:59:58;;;;;;;27.67;23.88;;;;;;;4.27;65.80;101661.73;501098;104;922912;-69
2023/01/20 03:01:11;;;;;;;26.26;23.67;;;;;;;4.27;65.59;101667.98;501620;105;922974;-70
2023/01/20 03:02:21;;;;;;;26.68;23.91;;;;;;;4.26;65.53;101658.18;494591;107;922507;-69
2023/01/20 03:03:31;;;;;;;28.43;23.87;;;;;;;4.25;65.49;101653.77;495764;105;923137;-69
2023/01/20 03:04:37;;;;;;;26.32;23.51;;;;;;;4.25;65.59;101663.72;495478;105;922790;-69
2023/01/20 03:05:44;;;;;;;28.60;25.49;;;;;;;4.25;65.54;101672.67;494549;107;922498;-69
2023/01/20 03:06:51;;;;;;;25.46;22.79;;;;;;;4.26;65.63;101660.87;503006;105;922389;-70
2023/01/20 03:07:54;;;;;;;27.56;24.44;;;;;;;4.26;65.62;101666.28;503969;105;922387;-70
2023/01/20 03:09:01;;;;;;;27.15;24.30;;;;;;;4.27;65.51;101673.38;506802;103;923333;-70
2023/01/20 03:10:08;;;;;;;27.42;24.39;;;;;;;4.24;65.45;101673.69;505837;103;922828;-70
2023/01/20 03:11:11;;;;;;;30.37;24.03;;;;;;;4.22;65.27;101675.67;511502;103;922502;-70
2023/01/20 03:12:21;;;;;;;26.45;23.71;;;;;;;4.21;65.34;101676.67;511355;103;922545;-69
2023/01/20 03:13:31;;;;;;;27.31;23.46;;;;;;;4.20;65.35;101683.05;504035;103;930303;-69
2023/01/20 03:14:34;;;;;;;30.20;23.71;;;;;;;4.17;65.24;101676.12;505539;103;923236;-69
2023/01/20 03:15:47;;;;;;;27.63;24.40;;;;;;;4.16;65.36;101676.26;504089;105;922483;-69
2023/01/20 03:16:50;;;;;;;27.88;22.79;;;;;;;4.15;65.38;101671.85;504280;103;922952;-70
2023/01/20 03:17:53;;;;;;;26.25;23.47;;;;;;;4.15;65.60;101686.20;511560;103;922564;-70
2023/01/20 03:18:57;;;;;;;26.52;23.77;;;;;;;4.16;65.59;101684.36;513956;103;922439;-70
2023/01/20 03:20:00;;;;;;;27.50;24.23;;;;;;;4.17;65.69;101681.52;507084;103;923027;-70
2023/01/20 03:21:06;;;;;;;28.49;24.27;;;;;;;4.18;65.69;101688.63;512566;103;922414;-69
2023/01/20 03:22:09;;;;;;;25.51;23.03;;;;;;;4.18;65.49;101690.47;506530;103;922955;-70
2023/01/20 03:23:12;;;;;;;26.71;23.66;;;;;;;4.16;65.38;101681.66;504723;103;922416;-69
2023/01/20 03:24:15;;;;;;;26.96;24.15;;;;;;;4.13;65.24;101687.36;504290;103;922494;-70
2023/01/20 03:25:19;;;;;;;29.16;23.64;;;;;;;4.09;65.08;101686.78;510776;103;922434;-69
2023/01/20 03:26:23;;;;;;;25.41;22.81;;;;;;;4.05;65.01;101688.08;513932;103;922544;-69
2023/01/20 03:27:26;;;;;;;26.57;23.74;;;;;;;4.03;65.09;101689.20;513799;103;922434;-70
2023/01/20 03:28:29;;;;;;;29.46;24.61;;;;;;;4.01;65.12;101688.52;514073;103;922426;-69
2023/01/20 03:29:32;;;;;;;31.93;23.53;;;;;;;3.97;65.15;101693.34;508588;103;922492;-69
2023/01/20 03:30:35;;;;;;;29.99;26.40;;;;;;;3.97;65.10;101689.81;508265;104;922342;-70
2023/01/20 03:31:45;;;;;;;31.38;24.11;;;;;;;3.95;65.31;101686.41;509253;103;922415;-69
2023/01/20 03:32:49;;;;;;;30.23;25.78;;;;;;;3.95;65.44;101689.95;504133;103;922448;-69
2023/01/20 03:33:55;;;;;;;28.19;24.97;;;;;;;3.94;65.57;101688.25;504013;105;922427;-69
2023/01/20 03:34:58;;;;;;;27.96;24.77;;;;;;;3.96;65.63;101686.27;506774;103;922855;-69
2023/01/20 03:36:02;;;;;;;28.78;25.59;;;;;;;3.97;65.74;101682.55;506579;103;922292;-69
2023/01/20 03:37:06;;;;;;;29.74;24.96;;;;;;;3.98;65.81;101689.65;504024;105;922410;-70
2023/01/20 03:38:10;;;;;;;29.82;24.96;;;;;;;3.99;65.82;101687.80;504039;104;922758;-70
2023/01/20 03:39:13;;;;;;;29.54;26.50;;;;;;;3.99;65.79;101690.50;504594;103;922888;-69
2023/01/20 03:40:17;;;;;;;28.13;25.15;;;;;;;4.00;65.76;101694.91;504278;103;922904;-70
2023/01/20 03:41:23;;;;;;;28.01;24.42;;;;;;;3.99;65.87;101683.27;504198;103;922515;-70
2023/01/20 03:42:36;;;;;;;25.98;23.34;;;;;;;4.00;65.86;101693.06;503900;105;930270;-70
2023/01/20 03:43:55;;;;;;;28.07;23.68;;;;;;;4.01;66.05;101689.38;503493;104;922590;-70
2023/01/20 03:45:02;;;;;;;25.95;23.10;;;;;;;4.02;66.02;101691.08;504593;103;922960;-69
2023/01/20 03:46:18;;;;;;;29.06;25.57;;;;;;;4.02;66.03;101691.08;490133;107;922538;-71
2023/01/20 03:47:30;;;;;;;28.35;25.41;;;;;;;4.03;66.16;101695.45;492032;107;922815;-69
2023/01/20 03:48:43;;;;;;;31.03;24.79;;;;;;;4.05;66.12;101695.32;490060;108;922998;-69
2023/01/20 03:49:58;;;;;;;27.77;24.89;;;;;;;4.03;66.03;101700.00;486537;106;922491;-69
2023/01/20 03:51:26;;;;;;;27.79;24.62;;;;;;;4.01;65.78;101700.17;491569;107;922958;-69
2023/01/20 03:52:39;;;;;;;27.29;24.58;;;;;;;3.98;65.84;101697.74;493646;107;922526;-69
2023/01/20 03:53:53;;;;;;;28.89;25.18;;;;;;;3.94;65.74;101698.19;487527;108;922500;-70
2023/01/20 03:55:08;;;;;;;33.03;24.71;;;;;;;3.92;65.86;101698.32;485139;106;922424;-69
2023/01/20 03:56:42;;;;;;;26.76;23.54;;;;;;;3.92;66.07;101694.77;494352;107;922458;-69
2023/01/20 03:57:52;;;;;;;26.53;23.83;;;;;;;3.93;66.19;101701.88;495068;107;922494;-70
2023/01/20 03:59:05;;;;;;;28.60;24.64;;;;;;;4.02;66.27;101692.93;477202;110;947538;-69
2023/01/20 04:00:10;;;;;;;28.48;25.06;;;;;;;3.93;66.35;101691.08;459956;114;922965;-68
2023/01/20 04:01:20;;;;;;;28.81;25.62;;;;;;;3.94;66.37;101692.79;457333;116;922888;-69
2023/01/20 04:02:25;;;;;;;30.27;25.93;;;;;;;3.94;66.47;101685.55;462814;114;922944;-69
2023/01/20 04:03:31;;;;;;;28.07;24.68;;;;;;;3.96;66.61;101686.27;464108;113;922751;-70
2023/01/20 04:04:37;;;;;;;28.34;24.51;;;;;;;3.99;66.49;101687.80;465851;112;922519;-69
2023/01/20 04:05:42;;;;;;;28.13;24.06;;;;;;;4.00;66.53;101687.67;465506;114;922484;-69
2023/01/20 04:06:49;;;;;;;27.80;24.89;;;;;;;4.01;66.52;101686.67;463731;113;922471;-69
2023/01/20 04:07:54;;;;;;;27.40;24.23;;;;;;;4.02;66.25;101687.53;465393;114;930202;-69
2023/01/20 04:09:12;;;;;;;31.48;25.48;;;;;;;4.01;66.09;101696.62;465449;114;922799;-70
2023/01/20 04:10:17;;;;;;;30.28;25.18;;;;;;;4.01;66.06;101696.62;461205;113;922587;-69
2023/01/20 04:11:20;;;;;;;27.44;24.05;;;;;;;3.97;65.95;101690.64;460934;114;922623;-70
2023/01/20 04:12:24;;;;;;;27.32;24.65;;;;;;;3.96;66.01;101697.06;457332;116;930803;-69
2023/01/20 04:13:27;;;;;;;24.82;22.54;;;;;;;3.96;66.04;101690.81;457266;116;930278;-69
2023/01/20 04:14:30;;;;;;;27.87;24.21;;;;;;;3.95;66.06;101686.41;458519;113;922457;-69
2023/01/20 04:15:40;;;;;;;30.52;25.96;;;;;;;3.95;66.14;101681.00;462717;113;922545;-70
2023/01/20 04:16:49;;;;;;;28.32;25.24;;;;;;;3.95;66.26;101683.70;461435;114;922523;-69
2023/01/20 04:17:53;;;;;;;30.84;25.35;;;;;;;3.95;66.46;101684.55;460522;114;922855;-69
2023/01/20 04:18:56;;;;;;;27.98;25.10;;;;;;;3.96;66.50;101677.31;460867;115;922863;-70
2023/01/20 04:20:02;;;;;;;28.27;25.26;;;;;;;3.98;66.53;101683.40;463350;112;922891;-69
2023/01/20 04:21:07;;;;;;;28.57;24.76;;;;;;;3.99;66.55;101683.27;464384;112;922973;-69
2023/01/20 04:22:19;;;;;;;32.12;26.15;;;;;;;4.01;66.53;101691.22;461201;114;922522;-70
2023/01/20 04:23:29;;;;;;;29.60;25.90;;;;;;;4.01;66.56;101683.98;460493;114;930631;-70
2023/01/20 04:24:53;;;;;;;27.41;24.45;;;;;;;4.03;66.55;101690.06;459411;114;922546;-70
2023/01/20 04:25:57;;;;;;;30.21;25.90;;;;;;;4.04;66.57;101685.52;460586;114;922597;-70
2023/01/20 04:27:00;;;;;;;33.91;25.66;;;;;;;4.05;66.71;101684.53;465558;114;922884;-70
2023/01/20 04:28:03;;;;;;;29.16;24.14;;;;;;;4.05;66.75;101679.98;462436;114;922688;-70
2023/01/20 04:29:09;;;;;;;31.40;24.55;;;;;;;4.06;66.74;101678.14;464648;114;922892;-70
2023/01/20 04:30:14;;;;;;;28.16;24.96;;;;;;;4.06;66.63;101680.84;463185;113;924009;-70
2023/01/20 04:31:17;;;;;;;28.58;24.74;;;;;;;4.07;66.61;101672.61;457509;116;923074;-69
2023/01/20 04:32:22;;;;;;;28.48;25.44;;;;;;;4.08;66.64;101676.98;459559;113;922588;-71
2023/01/20 04:33:25;;;;;;;26.64;24.00;;;;;;;4.08;66.67;101679.68;463485;114;922860;-69
2023/01/20 04:34:28;;;;;;;29.01;24.47;;;;;;;4.09;66.57;101685.93;464796;114;922611;-69
2023/01/20 04:35:32;;;;;;;31.57;25.46;;;;;;;4.09;66.63;101684.09;465616;114;922555;-69
2023/01/20 04:36:35;;;;;;;30.35;25.16;;;;;;;4.09;66.58;101684.09;463341;113;922947;-69
2023/01/20 04:37:38;;;;;;;28.98;25.52;;;;;;;4.10;66.59;101682.23;457611;116;922516;-68
2023/01/20 04:38:41;;;;;;;31.26;24.59;;;;;;;4.10;66.58;101683.09;457547;116;922559;-70
2023/01/20 04:39:44;;;;;;;32.93;25.50;;;;;;;4.11;66.59;101682.10;460917;114;922497;-70
2023/01/20 04:40:48;;;;;;;28.24;25.26;;;;;;;4.12;66.66;101674.86;460964;114;922603;-69
2023/01/20 04:41:51;;;;;;;27.09;24.39;;;;;;;4.12;66.58;101683.81;457887;114;922556;-70
2023/01/20 04:42:54;;;;;;;27.48;24.69;;;;;;;4.13;66.57;101682.82;463577;113;922463;-70
2023/01/20 04:43:57;;;;;;;28.00;24.84;;;;;;;4.14;66.57;101686.34;461556;114;922508;-69
2023/01/20 04:45:00;;;;;;;32.01;24.66;;;;;;;4.14;66.69;101689.89;462933;112;922463;-69
2023/01/20 04:46:04;;;;;;;28.30;24.87;;;;;;;4.14;66.75;101689.04;457496;116;922518;-69
2023/01/20 04:47:07;;;;;;;29.52;24.82;;;;;;;4.15;66.65;101685.34;459276;114;922665;-71
2023/01/20 04:48:10;;;;;;;27.45;24.51;;;;;;;4.17;66.81;101688.77;460768;115;922572;-70
2023/01/20 04:49:13;;;;;;;26.94;24.23;;;;;;;4.17;66.79;101688.77;460645;112;923146;-70
2023/01/20 04:50:17;;;;;;;32.80;25.19;;;;;;;4.19;66.79;101690.30;465135;114;922905;-70
2023/01/20 04:51:20;;;;;;;26.18;23.66;;;;;;;4.19;66.73;101687.61;465572;113;925495;-69
2023/01/20 04:52:23;;;;;;;30.13;24.81;;;;;;;4.20;66.64;101688.45;458543;114;922864;-69
2023/01/20 04:53:26;;;;;;;31.65;24.58;;;;;;;4.22;66.63;101691.02;457969;114;922569;-69
2023/01/20 04:54:29;;;;;;;27.77;24.92;;;;;;;4.22;66.62;101683.77;460930;112;922516;-70
2023/01/20 04:55:33;;;;;;;27.62;24.61;;;;;;;4.23;66.70;101690.88;464320;114;922606;-70
2023/01/20 04:56:36;;;;;;;31.66;24.32;;;;;;;4.23;66.62;101688.18;463212;114;922588;-70
2023/01/20 04:57:39;;;;;;;26.74;23.92;;;;;;;4.24;66.69;101691.73;463448;114;930249;-70
2023/01/20 04:58:42;;;;;;;27.27;23.66;;;;;;;4.24;66.56;101692.59;457620;114;922551;-71
2023/01/20 04:59:46;;;;;;;26.52;23.77;;;;;;;4.24;66.66;101689.89;461421;114;922613;-74
2023/01/20 05:00:49;;;;;;;31.43;24.79;;;;;;;4.25;66.62;101693.41;464420;114;922474;-72
2023/01/20 05:01:52;;;;;;;29.76;25.12;;;;;;;4.26;66.59;101692.42;465392;114;922586;-70
2023/01/20 05:02:58;;;;;;;28.14;25.12;;;;;;;4.27;66.59;101699.52;459528;114;922587;-70